Time;durP1;ratioP1;P1;durP2;ratioP2;P2;SDS_P1;SDS_P2;PMS_P1;PMS_P2;Temp;Humidity;BMP_temperature;BMP_pressure;BME280_temperature;BME280_humidity;BME280_pressure;Samples;Min_cycle;Max_cycle;Signal;HPM_P1;HPM_P2
2022/05/07 00:02:16;;;;;;;11.90;8.53;;;13.20;99.90;;;;;;5022056;28;20424;-78
2022/05/07 00:04:43;;;;;;;12.80;9.30;;;13.20;99.90;;;;;;5022012;28;20431;-79
2022/05/07 00:07:09;;;;;;;13.10;9.00;;;13.20;99.90;;;;;;5022285;28;20972;-78
2022/05/07 00:09:36;;;;;;;12.90;9.40;;;13.20;99.90;;;;;;5021511;28;20459;-78
2022/05/07 00:12:01;;;;;;;16.23;9.60;;;13.20;99.90;;;;;;5047560;22;20440;-83
2022/05/07 00:14:27;;;;;;;13.97;9.43;;;13.20;99.90;;;;;;5074051;28;20498;-80
2022/05/07 00:19:37;;;;;;;13.03;8.90;;;13.00;99.90;;;;;;5075709;28;20250;-80
2022/05/07 00:22:03;;;;;;;13.90;9.40;;;13.10;99.90;;;;;;5075468;28;20911;-80
2022/05/07 00:24:29;;;;;;;13.77;9.93;;;13.10;99.90;;;;;;5075474;28;20401;-81
2022/05/07 00:26:54;;;;;;;15.10;8.97;;;13.10;99.90;;;;;;5075369;28;20900;-80
2022/05/07 00:29:20;;;;;;;13.57;8.90;;;13.00;99.90;;;;;;5075054;28;20174;-80
2022/05/07 00:31:46;;;;;;;13.13;8.90;;;13.00;99.90;;;;;;5075092;28;20171;-80
2022/05/07 00:34:11;;;;;;;11.77;9.70;;;13.00;99.90;;;;;;5075061;28;20199;-80
2022/05/07 00:36:37;;;;;;;10.93;9.33;;;13.00;99.90;;;;;;5075341;28;20406;-81
2022/05/07 00:39:03;;;;;;;13.60;10.30;;;13.00;99.90;;;;;;5074085;28;20183;-80
2022/05/07 00:41:28;;;;;;;17.17;10.83;;;12.90;99.90;;;;;;5074957;28;20172;-80
2022/05/07 00:43:54;;;;;;;15.73;10.33;;;12.90;99.90;;;;;;5075040;28;20440;-80
2022/05/07 00:46:24;;;;;;;12.30;9.23;;;13.00;99.90;;;;;;5075014;28;20233;-80
2022/05/07 00:48:50;;;;;;;11.27;8.47;;;12.90;99.90;;;;;;5074993;28;20174;-80
2022/05/07 00:51:35;;;;;;;13.53;9.17;;;12.90;99.90;;;;;;5074534;28;20460;-80
2022/05/07 00:54:06;;;;;;;13.70;9.80;;;12.90;99.90;;;;;;5075104;28;20516;-80
2022/05/07 00:56:32;;;;;;;13.70;9.23;;;12.80;99.90;;;;;;5074652;28;20441;-80
2022/05/07 00:58:58;;;;;;;13.47;9.20;;;12.80;99.90;;;;;;5074873;28;20482;-80
2022/05/07 01:01:25;;;;;;;13.87;9.00;;;12.80;99.90;;;;;;5074715;28;20411;-80
2022/05/07 01:03:52;;;;;;;16.40;10.10;;;12.70;99.90;;;;;;5074572;28;20469;-80
2022/05/07 01:06:18;;;;;;;12.60;9.10;;;12.70;99.90;;;;;;5074017;28;20409;-80
2022/05/07 01:08:45;;;;;;;13.10;9.67;;;12.70;99.90;;;;;;5074665;28;20836;-80
2022/05/07 01:11:11;;;;;;;11.70;8.70;;;12.70;99.90;;;;;;5074506;28;20456;-80
2022/05/07 01:13:37;;;;;;;13.40;9.50;;;12.70;99.90;;;;;;5074340;28;20460;-81
2022/05/07 01:16:04;;;;;;;13.50;9.93;;;12.70;99.90;;;;;;5074434;28;20647;-81
2022/05/07 01:18:30;;;;;;;13.00;10.00;;;12.70;99.90;;;;;;5072978;28;20451;-81
2022/05/07 01:20:57;;;;;;;14.23;9.70;;;12.70;99.90;;;;;;5074254;28;20478;-81
2022/05/07 01:23:24;;;;;;;13.83;11.40;;;12.80;99.90;;;;;;5074099;28;20433;-80
2022/05/07 01:25:49;;;;;;;14.50;11.17;;;12.80;99.90;;;;;;5074316;28;20421;-81
2022/05/07 01:28:15;;;;;;;17.33;11.10;;;12.80;99.90;;;;;;5074236;28;20786;-81
2022/05/07 01:30:40;;;;;;;13.97;11.07;;;12.80;99.90;;;;;;5089561;28;20412;-80
2022/05/07 01:33:06;;;;;;;16.00;11.53;;;12.80;99.90;;;;;;5074370;28;20195;-80
2022/05/07 01:35:31;;;;;;;15.73;10.73;;;12.90;99.90;;;;;;5073890;28;20175;-80
2022/05/07 01:37:57;;;;;;;15.83;10.43;;;12.90;99.90;;;;;;5073983;28;20572;-81
2022/05/07 01:40:23;;;;;;;16.17;10.50;;;12.90;99.90;;;;;;5073632;28;20186;-81
2022/05/07 01:42:48;;;;;;;12.47;9.57;;;12.90;99.90;;;;;;5076055;28;20284;-81
2022/05/07 01:45:14;;;;;;;15.67;10.77;;;12.80;99.90;;;;;;5078453;28;20187;-81
2022/05/07 01:50:24;;;;;;;13.30;10.37;;;12.80;99.90;;;;;;5078535;28;20233;-81
2022/05/07 01:52:50;;;;;;;13.60;11.10;;;12.80;99.90;;;;;;5078329;28;20429;-81
2022/05/07 01:55:16;;;;;;;14.20;9.70;;;12.70;99.90;;;;;;5078027;28;20415;-81
2022/05/07 01:57:41;;;;;;;14.43;10.37;;;12.60;99.90;;;;;;5078174;28;20190;-81
2022/05/07 02:00:08;;;;;;;16.97;11.23;;;12.70;99.90;;;;;;5077505;28;20238;-81
2022/05/07 02:02:34;;;;;;;14.07;11.10;;;12.70;99.90;;;;;;5077737;28;20202;-81
2022/05/07 02:05:00;;;;;;;15.70;10.73;;;12.70;99.90;;;;;;5078095;28;20414;-81
2022/05/07 02:07:25;;;;;;;16.63;10.77;;;12.70;99.90;;;;;;5092930;28;20183;-81
2022/05/07 02:09:51;;;;;;;15.27;11.10;;;12.60;99.90;;;;;;5077449;28;20199;-81
2022/05/07 02:12:17;;;;;;;15.07;11.67;;;12.60;99.90;;;;;;5077216;28;20207;-81
2022/05/07 02:14:42;;;;;;;16.17;10.80;;;12.70;99.90;;;;;;5077311;28;20247;-81
2022/05/07 02:17:09;;;;;;;14.77;11.43;;;12.70;99.90;;;;;;5076250;28;20649;-81
2022/05/07 02:19:34;;;;;;;16.57;11.00;;;12.60;99.90;;;;;;5076745;28;20167;-81
2022/05/07 02:22:00;;;;;;;13.97;10.83;;;12.60;99.90;;;;;;5091618;28;20554;-81
2022/05/07 02:24:25;;;;;;;17.63;11.50;;;12.50;99.90;;;;;;5076922;28;20190;-81
2022/05/07 02:26:52;;;;;;;14.53;10.60;;;12.50;99.90;;;;;;5076718;28;20234;-81
2022/05/07 02:29:18;;;;;;;15.17;11.13;;;12.60;99.90;;;;;;5075834;28;20421;-81
2022/05/07 02:32:03;;;;;;;19.67;12.60;;;12.60;99.90;;;;;;5091511;28;20175;-81
2022/05/07 02:34:30;;;;;;;16.47;11.47;;;12.60;99.90;;;;;;5091885;28;20182;-81
2022/05/07 02:36:56;;;;;;;15.43;11.00;;;12.60;99.90;;;;;;5076049;28;20421;-81
2022/05/07 02:39:21;;;;;;;17.50;10.83;;;12.50;99.90;;;;;;5075731;28;20890;-81
2022/05/07 02:44:31;;;;;;;16.37;10.97;;;12.50;99.90;;;;;;5075968;28;20263;-81
2022/05/07 02:46:56;;;;;;;17.67;11.20;;;12.40;99.90;;;;;;5075794;28;20441;-81
2022/05/07 02:49:22;;;;;;;15.90;9.70;;;12.40;99.90;;;;;;5075927;28;20261;-81
2022/05/07 02:51:48;;;;;;;14.03;11.07;;;12.30;99.90;;;;;;5075342;28;20179;-81
2022/05/07 02:54:13;;;;;;;12.33;9.47;;;12.30;99.90;;;;;;5075351;28;20218;-81
2022/05/07 02:56:39;;;;;;;14.53;9.80;;;12.20;99.90;;;;;;5075074;28;20175;-81
2022/05/07 02:59:04;;;;;;;19.83;11.07;;;12.10;99.90;;;;;;5075133;28;20464;-81
2022/05/07 03:01:30;;;;;;;14.60;10.47;;;12.10;99.90;;;;;;5074793;28;20175;-81
2022/05/07 03:03:55;;;;;;;14.13;10.20;;;12.00;99.90;;;;;;5090392;28;20208;-81
2022/05/07 03:06:21;;;;;;;13.00;10.30;;;12.00;99.90;;;;;;5074703;28;20266;-81
2022/05/07 03:08:47;;;;;;;15.00;10.53;;;12.00;99.90;;;;;;5074756;28;20224;-81
2022/05/07 03:11:14;;;;;;;14.30;10.73;;;11.90;99.90;;;;;;5074914;28;20206;-80
2022/05/07 03:13:40;;;;;;;16.83;9.70;;;11.80;99.90;;;;;;5074660;28;20240;-81
2022/05/07 03:16:06;;;;;;;13.83;10.40;;;11.80;99.90;;;;;;5073745;28;20762;-80
2022/05/07 03:18:32;;;;;;;16.87;10.53;;;11.70;99.90;;;;;;5072217;28;20437;-80
2022/05/07 03:20:58;;;;;;;14.53;11.57;;;11.70;99.90;;;;;;5071894;28;20421;-80
2022/05/07 03:23:25;;;;;;;16.43;11.60;;;11.60;99.90;;;;;;5072100;28;20788;-80
2022/05/07 03:25:51;;;;;;;14.80;10.53;;;11.50;99.90;;;;;;5072278;28;20410;-81
2022/05/07 03:28:17;;;;;;;13.57;11.00;;;11.50;99.90;;;;;;5087604;28;20838;-80
2022/05/07 03:30:42;;;;;;;15.90;10.53;;;11.50;99.90;;;;;;5071764;28;20259;-80
2022/05/07 03:33:08;;;;;;;14.23;11.13;;;11.40;99.90;;;;;;5072037;28;20547;-80
2022/05/07 03:35:33;;;;;;;18.03;10.00;;;11.40;99.90;;;;;;5071799;28;20178;-80
2022/05/07 03:37:59;;;;;;;17.23;10.07;;;11.40;99.90;;;;;;5071811;28;20171;-80
2022/05/07 03:40:24;;;;;;;15.70;10.50;;;11.40;99.90;;;;;;5071210;28;20307;-80
2022/05/07 03:42:50;;;;;;;16.37;10.63;;;11.40;99.90;;;;;;5071962;28;20661;-80
2022/05/07 03:45:16;;;;;;;13.97;10.27;;;11.30;99.90;;;;;;5071709;28;20174;-80
2022/05/07 03:47:41;;;;;;;16.60;10.87;;;11.30;99.90;;;;;;5071958;28;20178;-80
2022/05/07 03:50:07;;;;;;;15.80;10.30;;;11.30;99.90;;;;;;5087107;28;20225;-80
2022/05/07 03:55:17;;;;;;;16.03;10.77;;;11.40;99.90;;;;;;5072453;28;20393;-81
2022/05/07 03:57:42;;;;;;;17.40;12.73;;;11.40;99.90;;;;;;5072060;28;20492;-80
2022/05/07 04:00:08;;;;;;;16.83;11.20;;;11.40;99.90;;;;;;5087302;28;20532;-80
2022/05/07 04:02:35;;;;;;;18.30;10.83;;;11.40;99.90;;;;;;5071660;28;20187;-80
2022/05/07 04:05:02;;;;;;;16.87;11.97;;;11.50;99.90;;;;;;5071717;28;20936;-80
2022/05/07 04:07:28;;;;;;;15.20;10.80;;;11.50;99.90;;;;;;5087366;28;20909;-80
2022/05/07 04:09:57;;;;;;;16.80;11.63;;;11.50;99.90;;;;;;5071665;28;20464;-80
2022/05/07 04:12:23;;;;;;;19.60;12.00;;;11.60;99.90;;;;;;5071162;28;20494;-80
2022/05/07 04:14:48;;;;;;;22.20;11.07;;;11.60;99.90;;;;;;5071461;28;20856;-80
2022/05/07 04:17:14;;;;;;;18.97;11.37;;;11.70;99.90;;;;;;5071333;28;20174;-80
2022/05/07 04:19:39;;;;;;;15.87;11.37;;;11.70;99.90;;;;;;5087259;28;20224;-80
2022/05/07 04:22:05;;;;;;;15.90;11.07;;;11.80;99.90;;;;;;5086836;28;20186;-80
2022/05/07 04:24:33;;;;;;;16.10;10.23;;;11.90;99.90;;;;;;5071438;28;20547;-80
2022/05/07 04:26:59;;;;;;;19.60;11.47;;;11.90;99.90;;;;;;5071398;28;20542;-80
2022/05/07 04:29:25;;;;;;;16.97;11.23;;;12.00;99.90;;;;;;5086868;28;20550;-80
2022/05/07 04:31:51;;;;;;;14.87;10.40;;;12.00;99.90;;;;;;5071152;28;20441;-81
2022/05/07 04:34:16;;;;;;;14.77;10.60;;;12.10;99.90;;;;;;5071260;28;20171;-80
2022/05/07 04:36:42;;;;;;;17.40;11.77;;;12.10;99.90;;;;;;5071819;28;20190;-81
2022/05/07 04:39:08;;;;;;;16.83;11.10;;;12.10;99.90;;;;;;5072393;28;20175;-80
2022/05/07 04:41:34;;;;;;;15.90;10.70;;;12.20;99.90;;;;;;5090484;28;20190;-81
2022/05/07 04:44:01;;;;;;;17.93;12.23;;;12.20;99.90;;;;;;5091658;28;20231;-80
2022/05/07 04:46:26;;;;;;;14.47;10.40;;;12.10;99.90;;;;;;5075991;28;20180;-80
2022/05/07 04:48:52;;;;;;;17.20;11.60;;;12.20;99.90;;;;;;5076055;28;20409;-80
2022/05/07 04:51:18;;;;;;;16.97;11.80;;;12.20;99.90;;;;;;5075483;28;20278;-81
2022/05/07 04:53:44;;;;;;;19.40;12.50;;;12.30;99.90;;;;;;5075886;28;20191;-80
2022/05/07 04:56:10;;;;;;;14.23;11.13;;;12.30;99.90;;;;;;5075697;28;20638;-80
2022/05/07 04:58:35;;;;;;;15.53;10.97;;;12.40;99.90;;;;;;5091129;28;20424;-80
2022/05/07 05:01:01;;;;;;;18.40;11.50;;;12.50;99.90;;;;;;5075327;28;20179;-80
2022/05/07 05:03:26;;;;;;;17.37;10.57;;;12.50;99.90;;;;;;5075293;28;20191;-81
2022/05/07 05:05:52;;;;;;;16.63;11.87;;;12.60;99.90;;;;;;5075213;28;20175;-81
2022/05/07 05:08:18;;;;;;;14.20;10.97;;;12.80;99.90;;;;;;5090966;28;20592;-81
2022/05/07 05:10:43;;;;;;;18.73;11.97;;;12.90;99.90;;;;;;5090721;28;20203;-81
2022/05/07 05:13:09;;;;;;;14.13;11.10;;;13.10;99.90;;;;;;5075011;28;20341;-80
2022/05/07 05:15:35;;;;;;;18.33;12.13;;;13.10;99.90;;;;;;5075014;28;20455;-81
2022/05/07 05:18:01;;;;;;;16.57;10.80;;;13.20;99.90;;;;;;5075226;28;20244;-80
2022/05/07 05:20:26;;;;;;;18.50;11.83;;;13.30;99.90;;;;;;5074973;28;20179;-81
2022/05/07 05:22:52;;;;;;;15.40;11.37;;;13.50;99.90;;;;;;5074919;28;20566;-80
2022/05/07 05:25:20;;;;;;;14.93;10.33;;;13.50;99.90;;;;;;5074968;28;20190;-80
2022/05/07 05:27:46;;;;;;;14.90;11.43;;;13.60;99.90;;;;;;5074902;28;20256;-80
2022/05/07 05:30:12;;;;;;;15.40;11.50;;;13.60;99.90;;;;;;5074243;28;20500;-80
2022/05/07 05:32:38;;;;;;;16.17;11.03;;;13.70;99.90;;;;;;5074727;28;20471;-80
2022/05/07 05:35:04;;;;;;;15.90;11.93;;;13.80;99.90;;;;;;5073024;28;20414;-80
2022/05/07 05:37:32;;;;;;;18.77;12.33;;;13.90;99.90;;;;;;5074550;28;20408;-81
2022/05/07 05:39:58;;;;;;;15.80;10.93;;;13.90;99.90;;;;;;5074323;28;20499;-80
2022/05/07 05:42:24;;;;;;;16.73;11.17;;;14.10;99.90;;;;;;5074184;28;20889;-80
2022/05/07 05:44:50;;;;;;;15.53;10.80;;;14.10;99.90;;;;;;5074265;28;20437;-80
2022/05/07 05:47:15;;;;;;;14.40;10.87;;;14.30;99.90;;;;;;5089760;28;20179;-81
2022/05/07 05:49:41;;;;;;;15.33;11.60;;;14.20;99.90;;;;;;5074272;28;20194;-80
2022/05/07 05:52:07;;;;;;;16.73;10.40;;;14.30;99.90;;;;;;5072942;28;20175;-80
2022/05/07 05:54:36;;;;;;;13.80;10.77;;;14.30;99.90;;;;;;5074023;28;20526;-81
2022/05/07 05:57:02;;;;;;;18.50;11.87;;;14.30;99.90;;;;;;5074187;28;20405;-81
2022/05/07 05:59:28;;;;;;;15.77;11.53;;;14.50;99.90;;;;;;5074266;28;20481;-81
2022/05/07 06:01:54;;;;;;;17.23;11.80;;;14.60;99.90;;;;;;5073546;28;20178;-81
2022/05/07 06:04:20;;;;;;;15.03;10.10;;;14.60;99.90;;;;;;5089520;28;20181;-80
2022/05/07 06:06:46;;;;;;;15.97;11.40;;;14.70;99.90;;;;;;5073644;28;20437;-80
2022/05/07 06:09:12;;;;;;;17.43;11.67;;;14.90;99.90;;;;;;5074049;28;20406;-80
2022/05/07 06:11:38;;;;;;;23.00;12.80;;;15.10;99.90;;;;;;5073225;28;20802;-81
2022/05/07 06:14:03;;;;;;;17.00;11.30;;;15.20;99.90;;;;;;5115843;22;20219;-82
2022/05/07 06:16:29;;;;;;;16.70;11.83;;;15.30;99.90;;;;;;5081079;28;20428;-82
2022/05/07 06:18:55;;;;;;;19.17;10.80;;;15.50;99.90;;;;;;5079786;28;20175;-82
2022/05/07 06:21:20;;;;;;;13.60;10.27;;;15.70;99.90;;;;;;5080948;28;20182;-83
2022/05/07 06:23:46;;;;;;;18.00;10.77;;;15.70;99.90;;;;;;5078604;28;20241;-82
2022/05/07 06:28:55;;;;;;;17.80;10.83;;;16.10;99.90;;;;;;5080643;28;20200;-84
2022/05/07 06:31:21;;;;;;;18.60;11.70;;;16.30;99.90;;;;;;5079716;28;20536;-81
2022/05/07 06:33:46;;;;;;;14.70;11.87;;;16.40;99.90;;;;;;5079439;28;20191;-82
2022/05/07 06:36:12;;;;;;;14.33;9.97;;;16.60;99.90;;;;;;5079169;28;20181;-83
2022/05/07 06:38:38;;;;;;;13.40;11.47;;;16.70;99.90;;;;;;5079482;28;20225;-85
2022/05/07 06:41:05;;;;;;;21.13;12.60;;;16.90;99.90;;;;;;5094458;28;20183;-82
2022/05/07 06:43:33;;;;;;;16.40;12.03;;;17.00;99.90;;;;;;5079815;28;20554;-82
2022/05/07 06:46:00;;;;;;;13.43;10.43;;;17.10;99.90;;;;;;5079064;28;20417;-82
2022/05/07 06:48:26;;;;;;;14.13;10.40;;;17.30;99.90;;;;;;5094621;28;20453;-81
2022/05/07 06:50:53;;;;;;;15.40;11.27;;;17.40;99.90;;;;;;5076809;28;20981;-82
2022/05/07 06:53:19;;;;;;;18.20;13.10;;;17.60;99.90;;;;;;5076612;28;20579;-81
2022/05/07 06:55:59;;;;;;;16.13;12.63;;;17.80;99.90;;;;;;5076487;28;20830;-83
2022/05/07 06:58:30;;;;;;;15.27;11.87;;;18.00;99.90;;;;;;5078891;28;20394;-82
2022/05/07 07:00:57;;;;;;;15.27;11.60;;;18.10;99.90;;;;;;5076820;28;20421;-82
2022/05/07 07:03:23;;;;;;;16.60;12.47;;;18.40;99.90;;;;;;5076319;28;20438;-83
2022/05/07 07:05:50;;;;;;;14.33;11.70;;;18.50;99.90;;;;;;5076622;28;20821;-84
2022/05/07 07:08:16;;;;;;;16.97;11.77;;;18.70;99.90;;;;;;5077038;28;20413;-81
2022/05/07 07:10:42;;;;;;;17.50;12.30;;;18.90;99.90;;;;;;5074647;28;20499;-82
2022/05/07 07:13:08;;;;;;;18.17;13.10;;;19.00;99.90;;;;;;5075457;28;20458;-82
2022/05/07 07:15:33;;;;;;;14.23;12.00;;;19.10;99.90;;;;;;5091906;28;20175;-82
2022/05/07 07:18:00;;;;;;;17.03;11.63;;;19.20;99.90;;;;;;5092296;28;20484;-83
2022/05/07 07:20:25;;;;;;;16.43;11.67;;;19.30;99.90;;;;;;5077137;28;20171;-81
2022/05/07 07:22:51;;;;;;;15.30;11.87;;;19.30;99.90;;;;;;5075406;28;20421;-83
2022/05/07 07:25:16;;;;;;;17.93;13.57;;;19.40;99.90;;;;;;5091286;28;20186;-83
2022/05/07 07:27:42;;;;;;;16.17;11.60;;;19.50;99.90;;;;;;5075521;28;20178;-82
2022/05/07 07:30:08;;;;;;;17.20;12.70;;;19.60;99.90;;;;;;5060761;28;20211;-80
2022/05/07 07:32:34;;;;;;;17.20;11.80;;;19.60;99.90;;;;;;5031988;28;20254;-83
2022/05/07 07:35:05;;;;;;;17.77;13.07;;;19.70;99.90;;;;;;5051958;28;20446;-83
2022/05/07 07:37:32;;;;;;;16.43;11.60;;;19.80;99.90;;;;;;5054998;28;20230;-81
2022/05/07 07:40:00;;;;;;;18.13;13.33;;;19.80;99.90;;;;;;5069996;28;20409;-84
2022/05/07 07:42:27;;;;;;;19.57;13.30;;;19.80;99.90;;;;;;5066904;28;20428;-83
2022/05/07 07:50:22;;;;;;;18.43;11.33;;;20.10;99.90;;;;;;5033400;28;20493;-81
2022/05/07 07:52:51;;;;;;;14.43;9.77;;;20.20;99.90;;;;;;5035202;28;20938;-80
2022/05/07 07:55:16;;;;;;;14.93;10.57;;;20.40;99.90;;;;;;5034159;28;20192;-82
2022/05/07 07:57:42;;;;;;;13.87;10.30;;;20.90;99.90;;;;;;5034441;28;20407;-81
2022/05/07 08:00:08;;;;;;;11.30;9.53;;;21.40;99.90;;;;;;5031170;28;20180;-80
2022/05/07 08:02:34;;;;;;;11.50;9.03;;;21.80;99.90;;;;;;5035162;28;20595;-81
2022/05/07 08:04:59;;;;;;;9.90;7.53;;;22.20;99.90;;;;;;5058538;28;20454;-80
2022/05/07 08:12:53;;;;;;;10.50;8.10;;;23.20;99.90;;;;;;5075180;28;20401;-81
2022/05/07 08:15:19;;;;;;;8.33;6.17;;;23.60;99.90;;;;;;5074301;28;20424;-81
2022/05/07 08:17:44;;;;;;;12.80;7.40;;;24.30;99.90;;;;;;5078449;28;20277;-83
2022/05/07 08:20:10;;;;;;;11.43;7.50;;;24.90;99.90;;;;;;5078249;28;20642;-82
2022/05/07 08:22:35;;;;;;;10.00;6.17;;;25.20;96.60;;;;;;5077016;28;20265;-81
2022/05/07 08:25:01;;;;;;;9.87;7.40;;;25.60;97.50;;;;;;5075866;28;20205;-80
2022/05/07 08:27:27;;;;;;;10.73;6.57;;;26.00;94.20;;;;;;5092812;28;20348;-82
2022/05/07 08:29:56;;;;;;;9.20;6.70;;;26.10;92.70;;;;;;5076778;28;20199;-82
2022/05/07 08:32:21;;;;;;;10.73;7.07;;;26.00;92.50;;;;;;5091747;28;20471;-80
2022/05/07 08:34:48;;;;;;;9.90;6.77;;;26.10;90.60;;;;;;5076438;28;20939;-80
2022/05/07 08:37:14;;;;;;;10.23;7.17;;;26.80;91.00;;;;;;5076213;28;20592;-80
2022/05/07 08:39:40;;;;;;;10.80;6.57;;;27.30;89.80;;;;;;5076639;28;20413;-80
2022/05/07 08:42:06;;;;;;;7.90;6.60;;;27.90;83.00;;;;;;5076081;28;20580;-81
2022/05/07 08:44:33;;;;;;;11.37;7.80;;;28.60;80.40;;;;;;5076513;28;20195;-82
2022/05/07 08:47:00;;;;;;;10.03;6.37;;;29.40;76.80;;;;;;5057933;28;20730;-81
2022/05/07 08:49:25;;;;;;;9.80;5.77;;;29.90;76.50;;;;;;5050024;28;20466;-82
2022/05/07 08:51:54;;;;;;;11.73;6.23;;;30.50;82.00;;;;;;5060291;28;20496;-84
2022/05/07 08:54:20;;;;;;;10.03;7.27;;;30.40;75.40;;;;;;5063938;28;20282;-81
2022/05/07 08:56:46;;;;;;;8.43;6.20;;;30.70;65.90;;;;;;5056666;28;20858;-82
2022/05/07 08:59:11;;;;;;;10.83;6.30;;;30.70;58.80;;;;;;5059320;28;20186;-81
2022/05/07 09:01:37;;;;;;;8.93;5.77;;;31.10;56.60;;;;;;5060708;28;20183;-80
2022/05/07 09:04:10;;;;;;;9.47;5.83;;;31.20;54.10;;;;;;5056756;28;20199;-81
2022/05/07 09:06:36;;;;;;;8.10;5.30;;;31.80;56.20;;;;;;5068581;28;20209;-81
2022/05/07 09:09:06;;;;;;;7.60;5.73;;;32.20;51.20;;;;;;5049081;28;20430;-81
2022/05/07 09:11:45;;;;;;;9.53;5.40;;;32.50;53.10;;;;;;5033506;28;20557;-82
2022/05/07 09:14:11;;;;;;;7.60;5.27;;;32.70;51.50;;;;;;5034454;28;20450;-82
2022/05/07 09:16:48;;;;;;;8.80;6.00;;;32.60;48.40;;;;;;5049868;28;20430;-81
2022/05/07 09:19:22;;;;;;;10.97;5.20;;;32.60;45.90;;;;;;5033243;28;20427;-82
2022/05/07 09:21:48;;;;;;;5.90;4.70;;;32.10;44.40;;;;;;5035148;28;20832;-82
2022/05/07 09:24:13;;;;;;;9.23;5.63;;;32.30;46.80;;;;;;5034925;28;20518;-82
2022/05/07 09:26:43;;;;;;;8.00;4.40;;;32.30;45.30;;;;;;5033061;28;20191;-81
2022/05/07 09:29:13;;;;;;;10.10;4.80;;;33.00;46.40;;;;;;5035087;28;20659;-84
2022/05/07 09:31:44;;;;;;;9.67;5.10;;;33.20;44.40;;;;;;5034524;28;20459;-83
2022/05/07 09:37:20;;;;;;;11.30;7.70;;;34.80;41.00;;;;;;5034910;28;20457;-82
2022/05/07 09:39:50;;;;;;;9.90;5.30;;;35.10;41.70;;;;;;5034667;28;20407;-84
2022/05/07 09:42:20;;;;;;;9.33;6.13;;;36.10;42.40;;;;;;5034353;28;20415;-82
2022/05/07 09:44:46;;;;;;;9.20;5.60;;;36.90;39.20;;;;;;5034283;28;20435;-81
2022/05/07 09:47:13;;;;;;;14.40;7.73;;;37.20;36.30;;;;;;5034246;28;20419;-82
2022/05/07 09:52:28;;;;;;;9.53;6.73;;;36.10;36.80;;;;;;5034965;28;20439;-81
2022/05/07 09:57:39;;;;;;;10.80;6.20;;;37.10;37.40;;;;;;5034333;28;20422;-82
2022/05/07 10:00:07;;;;;;;11.47;8.40;;;37.10;36.80;;;;;;5033875;28;20407;-82
2022/05/07 10:02:59;;;;;;;11.47;7.00;;;36.70;36.00;;;;;;5033950;28;20415;-82
2022/05/07 10:05:49;;;;;;;11.43;5.80;;;36.40;35.90;;;;;;5034109;28;20449;-82
2022/05/07 10:08:43;;;;;;;11.90;6.93;;;36.90;35.70;;;;;;5032660;28;20453;-82
2022/05/07 10:11:13;;;;;;;12.47;9.03;;;36.70;35.40;;;;;;5032282;28;20521;-82
2022/05/07 10:13:39;;;;;;;12.03;8.97;;;35.80;35.90;;;;;;5033731;28;20451;-81
2022/05/07 10:16:05;;;;;;;13.97;8.83;;;35.90;35.70;;;;;;5032218;28;20411;-81
2022/05/07 10:18:36;;;;;;;12.50;9.53;;;36.00;35.20;;;;;;5032389;28;20539;-82
2022/05/07 10:21:17;;;;;;;10.90;8.03;;;34.70;35.90;;;;;;5034114;28;20184;-81
2022/05/07 10:23:56;;;;;;;12.70;8.47;;;34.60;37.30;;;;;;5032545;28;20965;-82
2022/05/07 10:26:39;;;;;;;12.00;7.90;;;34.20;39.00;;;;;;5033355;28;20411;-82
2022/05/07 10:29:07;;;;;;;11.60;8.40;;;33.20;37.60;;;;;;5033388;28;20429;-82
2022/05/07 10:31:44;;;;;;;11.90;7.17;;;33.60;41.10;;;;;;5031662;28;20462;-83
2022/05/07 10:34:10;;;;;;;13.03;7.97;;;33.80;39.50;;;;;;5033102;28;20437;-81
2022/05/07 10:36:35;;;;;;;11.70;8.50;;;33.20;38.00;;;;;;5031758;28;20938;-81
2022/05/07 10:39:08;;;;;;;11.70;7.93;;;32.40;38.60;;;;;;5031177;28;20180;-82
2022/05/07 10:41:46;;;;;;;12.50;8.40;;;31.70;40.10;;;;;;5031409;28;20184;-81
2022/05/07 10:44:11;;;;;;;11.50;7.93;;;31.50;42.20;;;;;;5032820;28;20439;-82
2022/05/07 10:46:44;;;;;;;12.43;9.57;;;31.50;42.40;;;;;;5032972;28;20437;-82
2022/05/07 10:49:10;;;;;;;10.13;7.20;;;30.90;40.80;;;;;;5033068;28;20546;-82
2022/05/07 10:51:39;;;;;;;10.47;7.73;;;31.10;43.30;;;;;;5032804;28;20520;-82
2022/05/07 10:54:23;;;;;;;12.40;8.23;;;30.80;42.80;;;;;;5049433;28;20439;-83
2022/05/07 10:56:53;;;;;;;11.93;7.80;;;30.30;42.10;;;;;;5033054;28;20411;-82
2022/05/07 10:59:20;;;;;;;11.43;8.23;;;29.90;42.40;;;;;;5033478;28;20399;-82
2022/05/07 11:01:47;;;;;;;9.23;7.20;;;29.20;42.60;;;;;;5032819;28;20423;-82
2022/05/07 11:04:14;;;;;;;8.90;7.50;;;29.10;45.10;;;;;;5033077;28;20435;-82
2022/05/07 11:06:40;;;;;;;10.90;8.10;;;28.90;45.40;;;;;;5032740;28;20414;-81
2022/05/07 11:09:13;;;;;;;10.00;7.93;;;28.50;45.20;;;;;;5031491;28;20949;-82
2022/05/07 11:11:46;;;;;;;14.57;7.90;;;28.50;45.60;;;;;;5031721;28;20667;-82
2022/05/07 11:14:23;;;;;;;9.13;7.20;;;28.30;44.70;;;;;;5045652;28;20560;-84
2022/05/07 11:16:49;;;;;;;10.20;7.90;;;28.10;47.20;;;;;;5049699;28;20955;-83
2022/05/07 11:19:35;;;;;;;8.80;7.40;;;27.80;46.60;;;;;;5059118;28;20468;-81
2022/05/07 11:22:03;;;;;;;9.00;8.03;;;27.70;48.40;;;;;;5052356;28;20500;-82
2022/05/07 11:24:33;;;;;;;10.57;8.00;;;27.90;48.00;;;;;;5052284;28;20438;-82
2022/05/07 11:27:05;;;;;;;12.53;8.30;;;27.50;48.00;;;;;;5054081;28;20414;-85
2022/05/07 11:29:31;;;;;;;9.47;7.90;;;27.60;50.00;;;;;;5058391;28;20410;-84
2022/05/07 11:32:06;;;;;;;10.93;8.00;;;27.80;47.90;;;;;;5058815;28;20487;-83
2022/05/07 11:34:37;;;;;;;11.90;8.27;;;27.70;49.30;;;;;;5056889;28;20437;-83
2022/05/07 11:37:19;;;;;;;9.83;8.57;;;28.10;48.90;;;;;;5059359;28;20456;-84
2022/05/07 11:39:54;;;;;;;10.83;8.70;;;28.40;47.00;;;;;;5057948;28;20448;-84
2022/05/07 11:42:32;;;;;;;12.80;9.87;;;28.00;47.10;;;;;;5063372;28;20422;-83
2022/05/07 11:47:55;;;;;;;10.50;7.73;;;27.20;50.10;;;;;;5058519;28;20445;-84
2022/05/07 11:50:24;;;;;;;10.40;7.90;;;27.30;51.00;;;;;;5055265;28;20469;-84
2022/05/07 11:52:51;;;;;;;13.17;7.70;;;27.40;51.50;;;;;;5056883;28;20803;-84
2022/05/07 11:55:22;;;;;;;9.30;7.50;;;27.80;52.50;;;;;;5062426;28;20433;-83
2022/05/07 11:57:48;;;;;;;11.80;9.43;;;28.00;52.40;;;;;;5061786;28;20453;-85
2022/05/07 12:00:15;;;;;;;10.37;7.93;;;28.10;50.50;;;;;;5091642;28;20433;-85
2022/05/07 12:02:49;;;;;;;12.23;8.50;;;27.80;50.70;;;;;;5080379;28;20189;-83
2022/05/07 12:05:14;;;;;;;11.53;8.60;;;28.10;52.00;;;;;;5079463;28;20412;-85
2022/05/07 12:07:41;;;;;;;11.57;9.00;;;28.40;52.40;;;;;;5092657;28;20413;-86
2022/05/07 12:10:07;;;;;;;11.67;7.90;;;28.60;52.00;;;;;;5077069;28;20206;-85
2022/05/07 12:12:33;;;;;;;10.73;8.03;;;28.60;51.10;;;;;;5075197;28;20962;-84
2022/05/07 12:14:59;;;;;;;10.93;8.47;;;28.70;51.00;;;;;;5053102;28;20529;-83
2022/05/07 12:20:09;;;;;;;10.90;7.30;;;27.80;50.20;;;;;;5037279;28;20203;-86
2022/05/07 12:30:48;;;;;;;9.87;7.00;;;26.00;52.30;;;;;;5032313;28;20505;-82
2022/05/07 12:33:14;;;;;;;13.20;9.00;;;25.80;54.60;;;;;;5031005;28;20450;-82
2022/05/07 12:35:40;;;;;;;11.07;7.83;;;25.60;56.40;;;;;;5030735;28;20829;-81
2022/05/07 12:38:05;;;;;;;12.50;8.30;;;25.50;58.00;;;;;;5030864;28;20813;-82
2022/05/07 12:40:32;;;;;;;11.50;8.47;;;25.50;58.20;;;;;;5030721;28;20181;-81
2022/05/07 12:43:01;;;;;;;12.03;8.53;;;25.60;58.20;;;;;;5030638;28;20185;-82
2022/05/07 12:45:27;;;;;;;12.90;9.20;;;25.60;58.10;;;;;;5030424;28;20964;-81
2022/05/07 12:47:53;;;;;;;11.93;8.20;;;25.30;56.50;;;;;;5030763;28;20474;-82
2022/05/07 12:50:19;;;;;;;14.20;9.00;;;25.40;56.80;;;;;;5037535;28;20447;-82
2022/05/07 12:52:44;;;;;;;12.33;8.70;;;25.40;57.30;;;;;;5036609;28;20437;-80
2022/05/07 12:55:11;;;;;;;9.37;7.33;;;25.40;57.30;;;;;;5037754;28;20181;-82
2022/05/07 12:57:37;;;;;;;12.00;7.53;;;25.60;58.50;;;;;;5036250;28;20212;-81
2022/05/07 13:00:04;;;;;;;11.20;8.87;;;25.60;58.90;;;;;;5035524;28;20470;-81
2022/05/07 13:02:30;;;;;;;10.60;8.07;;;25.40;58.60;;;;;;5038170;28;20181;-81
2022/05/07 13:04:59;;;;;;;10.57;8.40;;;25.30;60.30;;;;;;5039687;28;20435;-81
2022/05/07 13:07:25;;;;;;;13.07;9.50;;;25.30;60.50;;;;;;5038392;28;20482;-81
2022/05/07 13:09:51;;;;;;;10.60;7.87;;;25.30;59.00;;;;;;5038559;28;20434;-81
2022/05/07 13:12:17;;;;;;;10.67;7.83;;;25.40;62.30;;;;;;5037845;28;20191;-81
2022/05/07 13:14:43;;;;;;;9.97;8.10;;;25.40;61.00;;;;;;5038452;28;20643;-80
2022/05/07 13:17:08;;;;;;;9.90;7.87;;;25.40;61.80;;;;;;5033560;28;20461;-80
2022/05/07 13:19:34;;;;;;;10.10;7.70;;;25.30;58.90;;;;;;5033364;28;20185;-80
2022/05/07 13:22:00;;;;;;;9.63;7.27;;;25.30;60.00;;;;;;5032857;28;20243;-80